Terminal Aerodrome Forecast
Issued by NWS Shreveport, LA

Home | Current Version | Previous Version | Text Only | Print | Product List | Glossary On
Versions: 1 2 3 4 5 6 7 8 9 10 11 12 13 14 15
000
FTUS44 KSHV 070532
TAFGGG
TAF
KGGG 070532Z 0706/0806 16007KT P6SM BKN080
     FM070800 15006KT P6SM SCT018 BKN080
      TEMPO 0708/0710 BKN015
     FM071100 16005KT P6SM OVC008
     FM071500 16010KT P6SM OVC013
     FM071700 17010KT P6SM BKN025
     FM071900 17011KT P6SM BKN040
     FM080100 15008KT P6SM BKN060=

USA.gov is the U.S. government's official web portal to all federal, state and local government web resources and services.